Webbs Cross Roads, Kentucky
Current Conditions -  °F | °C
As of 1:56 PM on Wednesday 26 Nov 2014 (Local Time) from KEKQ Reporting Station
Clear Clear  
Wind Chill: 45°   Ceiling: Unl
Heat Index: 49°   Visibility: 10mi
Dew Point: 24°   Wind: 8mph
Humidity: 38%   Direction: 280°W
Pressure: 30.06"   Gusts: NA
Location:  37.0704°N, 85.0327°W
Report Text: KEKQ 261956Z AUTO 28007KT 10SM CLR 09/M04 A3006 RMK AO2 T00941044 SLP186
Loading
Personal Weather Stations






























Interactive Weather Map New forecast layout! Learn more

10-Day Weather Forecast

Advertisements
Track Severe Weather on mobile